SWR244 LSGG-GOOY
Flight info
| Callsign | SWR244 |
|---|---|
| Flight time | N/A |
| Altitude | 35000 |
| Route | DEPUL DCT LSE UY305 ESIDA DCT GAI/N0464F370 DCT PERDU DCT EXEMU N869 NASOS L27 BLN N869 MGA M985 PIMOS N869 GALTO UN869 SLK UB11 PELAX UN869 ADM UR975 DIDAN/N0465F380 UR975 ANITI |
| Aircraft | A332/H-SDE3GHIJ2J3J5M1RVWXY/LB2D1 |
Departure
| Time | N/A |
|---|---|
| Airport | Geneva International Airport (LSGG) |
Arrival
| Time | 2026-04-29 13:25 |
|---|---|
| Airport | Léopold Sédar Senghor International Airport (GOOY) |
| Time | Latitude | Longitude | Altitude | Speed | Heading |
|---|---|---|---|---|---|
| 2026-04-29 13:17 | 14.72761 | -17.47893 | 9737 ft | 280 kts | 198° |
| 2026-04-29 13:18 | 14.70905 | -17.48489 | 9098 ft | 277 kts | 196° |
| 2026-04-29 13:18 | 14.69055 | -17.49052 | 8433 ft | 277 kts | 196° |
| 2026-04-29 13:18 | 14.67219 | -17.49600 | 7787 ft | 275 kts | 196° |
| 2026-04-29 13:18 | 14.65392 | -17.50140 | 7431 ft | 264 kts | 197° |
| 2026-04-29 13:19 | 14.63674 | -17.50645 | 7058 ft | 255 kts | 197° |
| 2026-04-29 13:19 | 14.61938 | -17.51156 | 6398 ft | 260 kts | 197° |
| 2026-04-29 13:19 | 14.60174 | -17.51676 | 5644 ft | 267 kts | 197° |
| 2026-04-29 13:19 | 14.58366 | -17.52206 | 4888 ft | 272 kts | 196° |
| 2026-04-29 13:20 | 14.56498 | -17.52445 | 4146 ft | 279 kts | 174° |
| 2026-04-29 13:20 | 14.54724 | -17.51675 | 3539 ft | 279 kts | 139° |
| 2026-04-29 13:20 | 14.53699 | -17.50051 | 3155 ft | 266 kts | 103° |
| 2026-04-29 13:20 | 14.53701 | -17.48208 | 2819 ft | 251 kts | 70° |
| 2026-04-29 13:21 | 14.54476 | -17.46732 | 2656 ft | 225 kts | 43° |
| 2026-04-29 13:21 | 14.55680 | -17.45856 | 2481 ft | 203 kts | 20° |
| 2026-04-29 13:21 | 14.57005 | -17.45607 | 2301 ft | 187 kts | 359° |
| 2026-04-29 13:21 | 14.58261 | -17.45715 | 2045 ft | 179 kts | 354° |
| 2026-04-29 13:22 | 14.59497 | -17.45894 | 1911 ft | 178 kts | 353° |
| 2026-04-29 13:22 | 14.60717 | -17.46074 | 2070 ft | 176 kts | 352° |
| 2026-04-29 13:22 | 14.61919 | -17.46246 | 2109 ft | 175 kts | 352° |
| 2026-04-29 13:22 | 14.63139 | -17.46417 | 1941 ft | 175 kts | 353° |
| 2026-04-29 13:23 | 14.64333 | -17.46581 | 1704 ft | 173 kts | 353° |
| 2026-04-29 13:23 | 14.65504 | -17.46739 | 1466 ft | 162 kts | 353° |
| 2026-04-29 13:23 | 14.66563 | -17.46881 | 1268 ft | 144 kts | 352° |
| 2026-04-29 13:23 | 14.67502 | -17.47009 | 1079 ft | 132 kts | 354° |
| 2026-04-29 13:24 | 14.68404 | -17.47132 | 921 ft | 132 kts | 354° |
| 2026-04-29 13:24 | 14.69325 | -17.47255 | 751 ft | 133 kts | 352° |
| 2026-04-29 13:24 | 14.70235 | -17.47384 | 582 ft | 131 kts | 352° |
| 2026-04-29 13:24 | 14.71144 | -17.47499 | 417 ft | 131 kts | 352° |
| 2026-04-29 13:25 | 14.72043 | -17.47619 | 270 ft | 135 kts | 352° |
| 2026-04-29 13:25 | 14.73781 | -17.47851 | 91 ft | 95 kts | 353° |
| 2026-04-29 13:25 | 14.74217 | -17.47911 | 89 ft | 19 kts | 348° |
| 2026-04-29 13:26 | 14.74273 | -17.47997 | 92 ft | 14 kts | 294° |
| 2026-04-29 13:26 | 14.74312 | -17.48088 | 92 ft | 14 kts | 291° |
| 2026-04-29 13:26 | 14.74332 | -17.48185 | 89 ft | 14 kts | 266° |
| 2026-04-29 13:26 | 14.74316 | -17.48285 | 91 ft | 14 kts | 258° |
| 2026-04-29 13:27 | 14.74295 | -17.48389 | 88 ft | 15 kts | 259° |
| 2026-04-29 13:27 | 14.74275 | -17.48499 | 91 ft | 16 kts | 259° |
| 2026-04-29 13:27 | 14.74279 | -17.48612 | 91 ft | 16 kts | 285° |
| 2026-04-29 13:27 | 14.74310 | -17.48726 | 92 ft | 17 kts | 285° |
| 2026-04-29 13:28 | 14.74344 | -17.48846 | 90 ft | 17 kts | 287° |
| 2026-04-29 13:28 | 14.74357 | -17.48908 | 92 ft | 3 kts | 260° |
| 2026-04-29 13:28 | 14.74342 | -17.48929 | 91 ft | 4 kts | 220° |
| 2026-04-29 13:28 | 14.74317 | -17.48938 | 89 ft | 4 kts | 194° |
| 2026-04-29 13:29 | 14.74301 | -17.48943 | 89 ft | 0 kts | 197° |